sensor_id;sensor_type;location;lat;lon;timestamp;P1;P2;P0
62778;PMS7003;48821;48.796;2.396;2023-06-05T00:00:01;5.00;5.00;4.00
62778;PMS7003;48821;48.796;2.396;2023-06-05T00:01:11;7.33;4.33;3.67
62778;PMS7003;48821;48.796;2.396;2023-06-05T00:02:22;6.00;4.00;3.00
62778;PMS7003;48821;48.796;2.396;2023-06-05T00:03:32;5.67;4.00;4.00
62778;PMS7003;48821;48.796;2.396;2023-06-05T00:04:43;5.00;5.00;4.00
62778;PMS7003;48821;48.796;2.396;2023-06-05T00:05:54;6.00;5.00;4.00
62778;PMS7003;48821;48.796;2.396;2023-06-05T00:07:05;4.00;4.00;3.00
62778;PMS7003;48821;48.796;2.396;2023-06-05T00:08:16;5.00;4.67;3.67
62778;PMS7003;48821;48.796;2.396;2023-06-05T00:09:26;5.00;4.67;3.33
62778;PMS7003;48821;48.796;2.396;2023-06-05T00:10:37;3.00;3.00;3.00
62778;PMS7003;48821;48.796;2.396;2023-06-05T00:11:48;4.00;4.00;3.00
62778;PMS7003;48821;48.796;2.396;2023-06-05T00:12:59;3.67;3.67;3.00
62778;PMS7003;48821;48.796;2.396;2023-06-05T00:14:10;5.00;5.00;4.00
62778;PMS7003;48821;48.796;2.396;2023-06-05T00:15:23;5.00;5.00;4.00
62778;PMS7003;48821;48.796;2.396;2023-06-05T00:16:36;3.00;3.00;3.00
62778;PMS7003;48821;48.796;2.396;2023-06-05T00:17:49;5.17;5.17;4.00
62778;PMS7003;48821;48.796;2.396;2023-06-05T00:18:59;5.00;5.00;4.00
62778;PMS7003;48821;48.796;2.396;2023-06-05T00:20:11;5.00;4.00;3.00
62778;PMS7003;48821;48.796;2.396;2023-06-05T00:21:21;4.00;4.00;3.33
62778;PMS7003;48821;48.796;2.396;2023-06-05T00:22:32;4.00;4.00;3.67
62778;PMS7003;48821;48.796;2.396;2023-06-05T00:23:46;4.33;4.17;3.83
62778;PMS7003;48821;48.796;2.396;2023-06-05T00:24:59;3.50;3.00;2.50
62778;PMS7003;48821;48.796;2.396;2023-06-05T00:26:09;5.00;5.00;4.00
62778;PMS7003;48821;48.796;2.396;2023-06-05T00:27:20;6.33;5.00;4.00
62778;PMS7003;48821;48.796;2.396;2023-06-05T00:28:33;3.00;3.00;2.00
62778;PMS7003;48821;48.796;2.396;2023-06-05T00:29:44;9.33;6.00;4.00
62778;PMS7003;48821;48.796;2.396;2023-06-05T00:30:55;7.00;6.00;4.00
62778;PMS7003;48821;48.796;2.396;2023-06-05T00:32:05;4.67;4.00;3.67
62778;PMS7003;48821;48.796;2.396;2023-06-05T00:33:16;7.33;4.67;4.00
62778;PMS7003;48821;48.796;2.396;2023-06-05T00:34:27;4.00;4.00;3.33
62778;PMS7003;48821;48.796;2.396;2023-06-05T00:35:38;5.00;5.00;4.33
62778;PMS7003;48821;48.796;2.396;2023-06-05T00:36:51;6.33;4.50;3.17
62778;PMS7003;48821;48.796;2.396;2023-06-05T00:38:02;4.00;4.00;3.00
62778;PMS7003;48821;48.796;2.396;2023-06-05T00:39:13;7.00;6.67;5.33
62778;PMS7003;48821;48.796;2.396;2023-06-05T00:40:23;4.00;4.00;3.00
62778;PMS7003;48821;48.796;2.396;2023-06-05T00:41:35;6.00;5.33;4.33
62778;PMS7003;48821;48.796;2.396;2023-06-05T00:42:45;5.33;4.00;3.67
62778;PMS7003;48821;48.796;2.396;2023-06-05T00:43:56;5.67;4.33;4.00
62778;PMS7003;48821;48.796;2.396;2023-06-05T00:45:07;6.00;4.00;3.00
62778;PMS7003;48821;48.796;2.396;2023-06-05T00:46:18;6.33;4.67;3.67
62778;PMS7003;48821;48.796;2.396;2023-06-05T00:47:29;4.67;4.67;4.00
62778;PMS7003;48821;48.796;2.396;2023-06-05T00:48:40;4.67;4.00;4.00
62778;PMS7003;48821;48.796;2.396;2023-06-05T00:49:53;5.17;5.17;4.00
62778;PMS7003;48821;48.796;2.396;2023-06-05T00:51:03;4.00;4.00;4.00
62778;PMS7003;48821;48.796;2.396;2023-06-05T00:52:14;5.67;5.00;4.33
62778;PMS7003;48821;48.796;2.396;2023-06-05T00:53:25;5.00;4.33;3.67
62778;PMS7003;48821;48.796;2.396;2023-06-05T00:54:36;7.33;4.33;4.00
62778;PMS7003;48821;48.796;2.396;2023-06-05T00:55:48;7.00;5.75;4.25
62778;PMS7003;48821;48.796;2.396;2023-06-05T00:56:58;5.67;4.00;3.00
62778;PMS7003;48821;48.796;2.396;2023-06-05T00:58:09;5.33;5.33;4.67
62778;PMS7003;48821;48.796;2.396;2023-06-05T00:59:22;1.50;1.00;1.00
62778;PMS7003;48821;48.796;2.396;2023-06-05T01:00:32;4.00;4.00;3.67
62778;PMS7003;48821;48.796;2.396;2023-06-05T01:01:44;5.00;5.00;4.00
62778;PMS7003;48821;48.796;2.396;2023-06-05T01:02:55;5.00;4.00;3.33
62778;PMS7003;48821;48.796;2.396;2023-06-05T01:04:06;7.00;5.00;4.00
62778;PMS7003;48821;48.796;2.396;2023-06-05T01:05:17;4.00;4.00;4.00
62778;PMS7003;48821;48.796;2.396;2023-06-05T01:06:30;3.00;3.00;3.00
62778;PMS7003;48821;48.796;2.396;2023-06-05T01:07:41;6.33;4.00;3.67
62778;PMS7003;48821;48.796;2.396;2023-06-05T01:08:52;5.00;5.00;4.00
62778;PMS7003;48821;48.796;2.396;2023-06-05T01:10:06;6.00;5.00;4.00
62778;PMS7003;48821;48.796;2.396;2023-06-05T01:11:27;5.17;5.00;4.33
62778;PMS7003;48821;48.796;2.396;2023-06-05T01:15:20;5.33;5.00;4.00
62778;PMS7003;48821;48.796;2.396;2023-06-05T01:16:41;6.33;5.50;4.17
62778;PMS7003;48821;48.796;2.396;2023-06-05T01:17:58;6.50;5.17;3.83
62778;PMS7003;48821;48.796;2.396;2023-06-05T01:19:13;5.83;4.00;3.33
62778;PMS7003;48821;48.796;2.396;2023-06-05T01:20:33;7.67;5.67;5.00
62778;PMS7003;48821;48.796;2.396;2023-06-05T01:21:44;7.00;5.00;4.00
62778;PMS7003;48821;48.796;2.396;2023-06-05T01:22:55;7.00;5.00;4.00
62778;PMS7003;48821;48.796;2.396;2023-06-05T01:24:07;5.67;5.67;5.00
62778;PMS7003;48821;48.796;2.396;2023-06-05T01:25:18;4.00;4.00;3.33
62778;PMS7003;48821;48.796;2.396;2023-06-05T01:26:32;6.33;5.00;4.00
62778;PMS7003;48821;48.796;2.396;2023-06-05T01:29:00;6.33;5.00;4.00
62778;PMS7003;48821;48.796;2.396;2023-06-05T01:30:28;6.33;6.17;4.00
62778;PMS7003;48821;48.796;2.396;2023-06-05T01:31:43;4.67;4.67;3.50
62778;PMS7003;48821;48.796;2.396;2023-06-05T01:32:57;9.67;6.00;5.00
62778;PMS7003;48821;48.796;2.396;2023-06-05T01:34:16;4.67;4.67;4.00
62778;PMS7003;48821;48.796;2.396;2023-06-05T01:35:32;7.83;5.50;4.17
62778;PMS7003;48821;48.796;2.396;2023-06-05T01:36:44;4.67;4.67;4.00
62778;PMS7003;48821;48.796;2.396;2023-06-05T01:37:56;5.00;5.00;3.33
62778;PMS7003;48821;48.796;2.396;2023-06-05T01:39:11;7.50;5.00;3.67
62778;PMS7003;48821;48.796;2.396;2023-06-05T01:40:23;5.00;3.00;3.00
62778;PMS7003;48821;48.796;2.396;2023-06-05T01:41:34;9.67;5.00;4.00
62778;PMS7003;48821;48.796;2.396;2023-06-05T01:42:45;4.67;3.67;3.67
62778;PMS7003;48821;48.796;2.396;2023-06-05T01:43:59;6.50;5.00;3.67
62778;PMS7003;48821;48.796;2.396;2023-06-05T01:45:10;6.33;4.00;3.00
62778;PMS7003;48821;48.796;2.396;2023-06-05T01:46:24;4.50;4.50;3.67
62778;PMS7003;48821;48.796;2.396;2023-06-05T01:47:37;8.17;6.33;4.50
62778;PMS7003;48821;48.796;2.396;2023-06-05T01:48:51;8.33;5.83;4.83
62778;PMS7003;48821;48.796;2.396;2023-06-05T01:50:05;5.67;5.67;4.50
62778;PMS7003;48821;48.796;2.396;2023-06-05T01:51:19;7.00;6.00;5.00
62778;PMS7003;48821;48.796;2.396;2023-06-05T01:52:32;7.83;6.83;5.00
62778;PMS7003;48821;48.796;2.396;2023-06-05T01:53:44;5.33;5.33;5.00
62778;PMS7003;48821;48.796;2.396;2023-06-05T01:55:01;4.50;4.00;3.00
62778;PMS7003;48821;48.796;2.396;2023-06-05T01:56:12;6.00;6.00;5.00
62778;PMS7003;48821;48.796;2.396;2023-06-05T01:57:23;7.00;6.33;5.00
62778;PMS7003;48821;48.796;2.396;2023-06-05T01:58:33;6.00;4.33;4.00
62778;PMS7003;48821;48.796;2.396;2023-06-05T01:59:45;4.67;3.00;2.00
62778;PMS7003;48821;48.796;2.396;2023-06-05T02:00:56;7.00;6.00;4.67
62778;PMS7003;48821;48.796;2.396;2023-06-05T02:02:06;6.67;5.00;4.00
62778;PMS7003;48821;48.796;2.396;2023-06-05T02:03:20;4.50;4.00;3.67
62778;PMS7003;48821;48.796;2.396;2023-06-05T02:04:31;3.00;3.00;2.00
62778;PMS7003;48821;48.796;2.396;2023-06-05T02:05:45;6.83;6.83;5.00
62778;PMS7003;48821;48.796;2.396;2023-06-05T02:06:58;5.67;5.67;4.00
62778;PMS7003;48821;48.796;2.396;2023-06-05T02:08:15;4.50;4.50;3.67
62778;PMS7003;48821;48.796;2.396;2023-06-05T02:09:29;4.67;4.33;3.67
62778;PMS7003;48821;48.796;2.396;2023-06-05T02:10:45;5.50;4.17;3.17
62778;PMS7003;48821;48.796;2.396;2023-06-05T02:11:56;7.00;6.67;5.00
62778;PMS7003;48821;48.796;2.396;2023-06-05T02:13:08;5.67;4.33;4.00
62778;PMS7003;48821;48.796;2.396;2023-06-05T02:14:19;6.67;6.67;5.33
62778;PMS7003;48821;48.796;2.396;2023-06-05T02:15:30;7.00;6.00;4.33
62778;PMS7003;48821;48.796;2.396;2023-06-05T02:16:45;7.50;5.17;4.50
62778;PMS7003;48821;48.796;2.396;2023-06-05T02:18:01;1.00;1.00;0.00
62778;PMS7003;48821;48.796;2.396;2023-06-05T02:19:13;6.33;5.00;4.00
62778;PMS7003;48821;48.796;2.396;2023-06-05T02:20:24;7.00;5.33;4.00
62778;PMS7003;48821;48.796;2.396;2023-06-05T02:21:37;6.17;5.67;5.00
62778;PMS7003;48821;48.796;2.396;2023-06-05T02:22:48;7.00;4.00;4.00
62778;PMS7003;48821;48.796;2.396;2023-06-05T02:24:02;5.00;5.00;4.00
62778;PMS7003;48821;48.796;2.396;2023-06-05T02:25:16;4.50;3.33;2.50
62778;PMS7003;48821;48.796;2.396;2023-06-05T02:26:29;7.33;6.17;5.17
62778;PMS7003;48821;48.796;2.396;2023-06-05T02:27:39;5.67;5.00;4.00
62778;PMS7003;48821;48.796;2.396;2023-06-05T02:28:50;10.33;6.00;5.00
62778;PMS7003;48821;48.796;2.396;2023-06-05T02:30:03;5.00;4.00;3.60
62778;PMS7003;48821;48.796;2.396;2023-06-05T02:31:16;5.17;4.33;4.17
62778;PMS7003;48821;48.796;2.396;2023-06-05T02:32:29;6.00;6.00;4.00
62778;PMS7003;48821;48.796;2.396;2023-06-05T02:33:41;6.33;5.67;4.33
62778;PMS7003;48821;48.796;2.396;2023-06-05T02:34:53;6.00;5.50;5.00
62778;PMS7003;48821;48.796;2.396;2023-06-05T02:36:06;7.00;5.33;4.33
62778;PMS7003;48821;48.796;2.396;2023-06-05T02:37:17;7.33;5.00;4.67
62778;PMS7003;48821;48.796;2.396;2023-06-05T02:38:31;5.67;5.00;4.00
62778;PMS7003;48821;48.796;2.396;2023-06-05T02:39:44;7.17;6.00;4.50
62778;PMS7003;48821;48.796;2.396;2023-06-05T02:40:58;7.67;5.33;4.50
62778;PMS7003;48821;48.796;2.396;2023-06-05T02:42:11;7.00;5.17;4.33
62778;PMS7003;48821;48.796;2.396;2023-06-05T02:43:25;6.00;3.17;2.67
62778;PMS7003;48821;48.796;2.396;2023-06-05T02:44:35;3.33;3.00;3.00
62778;PMS7003;48821;48.796;2.396;2023-06-05T02:45:46;6.33;6.33;5.00
62778;PMS7003;48821;48.796;2.396;2023-06-05T02:46:57;10.00;8.00;6.00
62778;PMS7003;48821;48.796;2.396;2023-06-05T02:48:08;5.67;5.67;4.00
62778;PMS7003;48821;48.796;2.396;2023-06-05T02:49:20;5.00;4.20;3.20
62778;PMS7003;48821;48.796;2.396;2023-06-05T02:50:31;5.00;5.00;4.00
62778;PMS7003;48821;48.796;2.396;2023-06-05T02:51:42;7.00;7.00;6.00
62778;PMS7003;48821;48.796;2.396;2023-06-05T02:52:52;7.33;5.67;4.67
62778;PMS7003;48821;48.796;2.396;2023-06-05T02:54:03;5.00;3.67;3.00
62778;PMS7003;48821;48.796;2.396;2023-06-05T02:55:15;5.50;5.50;5.00
62778;PMS7003;48821;48.796;2.396;2023-06-05T02:56:26;8.00;7.00;6.00
62778;PMS7003;48821;48.796;2.396;2023-06-05T02:57:37;7.00;6.00;4.67
62778;PMS7003;48821;48.796;2.396;2023-06-05T02:58:51;8.00;7.00;4.33
62778;PMS7003;48821;48.796;2.396;2023-06-05T03:00:02;7.00;5.67;5.00
62778;PMS7003;48821;48.796;2.396;2023-06-05T03:01:20;5.67;4.00;3.17
62778;PMS7003;48821;48.796;2.396;2023-06-05T03:02:31;7.33;5.00;5.00
62778;PMS7003;48821;48.796;2.396;2023-06-05T03:03:42;6.00;4.33;3.00
62778;PMS7003;48821;48.796;2.396;2023-06-05T03:04:53;6.33;6.00;5.00
62778;PMS7003;48821;48.796;2.396;2023-06-05T03:06:08;7.83;6.50;5.50
62778;PMS7003;48821;48.796;2.396;2023-06-05T03:07:19;5.33;5.33;4.00
62778;PMS7003;48821;48.796;2.396;2023-06-05T03:08:32;10.50;6.33;4.83
62778;PMS7003;48821;48.796;2.396;2023-06-05T03:09:43;7.67;7.00;4.67
62778;PMS7003;48821;48.796;2.396;2023-06-05T03:10:54;8.33;6.00;4.33
62778;PMS7003;48821;48.796;2.396;2023-06-05T03:12:05;6.33;4.33;3.00
62778;PMS7003;48821;48.796;2.396;2023-06-05T03:13:16;5.00;5.00;4.67
62778;PMS7003;48821;48.796;2.396;2023-06-05T03:14:28;8.00;5.80;5.40
62778;PMS7003;48821;48.796;2.396;2023-06-05T03:15:43;7.17;6.33;5.17
62778;PMS7003;48821;48.796;2.396;2023-06-05T03:16:56;6.50;4.67;4.17
62778;PMS7003;48821;48.796;2.396;2023-06-05T03:18:09;7.00;7.00;6.00
62778;PMS7003;48821;48.796;2.396;2023-06-05T03:19:19;9.00;7.67;6.00
62778;PMS7003;48821;48.796;2.396;2023-06-05T03:20:30;10.67;6.00;5.00
62778;PMS7003;48821;48.796;2.396;2023-06-05T03:21:41;9.33;6.33;5.00
62778;PMS7003;48821;48.796;2.396;2023-06-05T03:22:55;7.67;7.17;5.33
62778;PMS7003;48821;48.796;2.396;2023-06-05T03:24:08;5.33;5.33;3.67
62778;PMS7003;48821;48.796;2.396;2023-06-05T03:25:21;6.00;6.00;5.00
62778;PMS7003;48821;48.796;2.396;2023-06-05T03:26:31;8.50;8.00;6.00
62778;PMS7003;48821;48.796;2.396;2023-06-05T03:27:44;6.60;6.60;5.20
62778;PMS7003;48821;48.796;2.396;2023-06-05T03:28:56;8.50;7.00;5.00
62778;PMS7003;48821;48.796;2.396;2023-06-05T03:30:07;10.00;7.00;5.67
62778;PMS7003;48821;48.796;2.396;2023-06-05T03:31:18;8.00;5.67;4.33
62778;PMS7003;48821;48.796;2.396;2023-06-05T03:32:30;7.67;6.33;6.00
62778;PMS7003;48821;48.796;2.396;2023-06-05T03:33:40;11.33;8.00;5.67
62778;PMS7003;48821;48.796;2.396;2023-06-05T03:34:51;5.67;5.67;5.00
62778;PMS7003;48821;48.796;2.396;2023-06-05T03:36:01;5.00;5.00;4.00
62778;PMS7003;48821;48.796;2.396;2023-06-05T03:37:12;8.00;6.67;4.33
62778;PMS7003;48821;48.796;2.396;2023-06-05T03:38:23;7.33;5.67;4.67
62778;PMS7003;48821;48.796;2.396;2023-06-05T03:39:34;4.33;4.33;4.00
62778;PMS7003;48821;48.796;2.396;2023-06-05T03:40:45;6.00;6.00;5.00
62778;PMS7003;48821;48.796;2.396;2023-06-05T03:41:57;5.20;4.00;2.60
62778;PMS7003;48821;48.796;2.396;2023-06-05T03:43:08;7.67;7.00;5.00
62778;PMS7003;48821;48.796;2.396;2023-06-05T03:44:19;6.33;6.00;4.00
62778;PMS7003;48821;48.796;2.396;2023-06-05T03:45:30;7.00;6.00;5.00
62778;PMS7003;48821;48.796;2.396;2023-06-05T03:46:42;10.50;7.50;6.00
62778;PMS7003;48821;48.796;2.396;2023-06-05T03:47:53;6.67;6.33;5.00
62778;PMS7003;48821;48.796;2.396;2023-06-05T03:49:06;6.83;4.83;4.33
62778;PMS7003;48821;48.796;2.396;2023-06-05T03:50:22;7.83;5.33;5.33
62778;PMS7003;48821;48.796;2.396;2023-06-05T03:51:34;9.00;8.33;6.00
62778;PMS7003;48821;48.796;2.396;2023-06-05T03:52:44;8.00;8.00;6.00
62778;PMS7003;48821;48.796;2.396;2023-06-05T03:53:56;9.00;6.67;5.67
62778;PMS7003;48821;48.796;2.396;2023-06-05T03:55:08;7.67;7.33;6.00
62778;PMS7003;48821;48.796;2.396;2023-06-05T03:56:19;6.00;6.00;5.00
62778;PMS7003;48821;48.796;2.396;2023-06-05T03:57:30;9.00;7.67;5.33
62778;PMS7003;48821;48.796;2.396;2023-06-05T03:58:40;7.00;5.67;4.00
62778;PMS7003;48821;48.796;2.396;2023-06-05T03:59:51;6.50;5.00;4.00
62778;PMS7003;48821;48.796;2.396;2023-06-05T04:01:02;7.33;6.67;4.67
62778;PMS7003;48821;48.796;2.396;2023-06-05T04:02:13;11.00;9.00;6.00
62778;PMS7003;48821;48.796;2.396;2023-06-05T04:03:23;7.33;6.67;5.00
62778;PMS7003;48821;48.796;2.396;2023-06-05T04:04:35;9.00;8.00;6.00
62778;PMS7003;48821;48.796;2.396;2023-06-05T04:05:46;8.00;6.33;5.33
62778;PMS7003;48821;48.796;2.396;2023-06-05T04:06:56;8.33;8.33;6.00
62778;PMS7003;48821;48.796;2.396;2023-06-05T04:08:07;10.33;9.00;6.67
62778;PMS7003;48821;48.796;2.396;2023-06-05T04:09:21;7.00;7.00;5.17
62778;PMS7003;48821;48.796;2.396;2023-06-05T04:10:31;6.67;6.67;5.67
62778;PMS7003;48821;48.796;2.396;2023-06-05T04:11:42;10.00;8.50;5.50
62778;PMS7003;48821;48.796;2.396;2023-06-05T04:12:53;9.50;8.00;6.50
62778;PMS7003;48821;48.796;2.396;2023-06-05T04:14:04;6.00;6.00;5.50
62778;PMS7003;48821;48.796;2.396;2023-06-05T04:15:16;5.25;0.00;0.00
62778;PMS7003;48821;48.796;2.396;2023-06-05T04:16:26;7.00;7.00;5.67
62778;PMS7003;48821;48.796;2.396;2023-06-05T04:17:37;10.33;8.67;6.00
62778;PMS7003;48821;48.796;2.396;2023-06-05T04:18:48;8.00;7.00;5.50
62778;PMS7003;48821;48.796;2.396;2023-06-05T04:19:59;8.00;8.00;6.67
62778;PMS7003;48821;48.796;2.396;2023-06-05T04:21:10;8.67;7.33;6.00
62778;PMS7003;48821;48.796;2.396;2023-06-05T04:22:20;9.50;7.00;6.00
62778;PMS7003;48821;48.796;2.396;2023-06-05T04:23:31;8.33;7.33;5.00
62778;PMS7003;48821;48.796;2.396;2023-06-05T04:24:42;9.00;9.00;7.00
62778;PMS7003;48821;48.796;2.396;2023-06-05T04:25:53;8.33;7.67;5.00
62778;PMS7003;48821;48.796;2.396;2023-06-05T04:27:05;10.75;10.25;7.25
62778;PMS7003;48821;48.796;2.396;2023-06-05T04:28:16;9.75;7.00;5.25
62778;PMS7003;48821;48.796;2.396;2023-06-05T04:29:26;9.00;8.00;7.00
62778;PMS7003;48821;48.796;2.396;2023-06-05T04:30:37;8.00;8.00;7.00
62778;PMS7003;48821;48.796;2.396;2023-06-05T04:31:48;8.50;8.50;6.00
62778;PMS7003;48821;48.796;2.396;2023-06-05T04:32:59;10.00;9.00;7.00
62778;PMS7003;48821;48.796;2.396;2023-06-05T04:34:10;10.25;7.25;5.50
62778;PMS7003;48821;48.796;2.396;2023-06-05T04:35:21;9.00;8.00;6.00
62778;PMS7003;48821;48.796;2.396;2023-06-05T04:36:32;12.50;8.00;6.50
62778;PMS7003;48821;48.796;2.396;2023-06-05T04:37:44;9.00;9.00;7.00
62778;PMS7003;48821;48.796;2.396;2023-06-05T04:38:58;9.67;7.67;5.83
62778;PMS7003;48821;48.796;2.396;2023-06-05T04:40:11;7.67;6.33;5.00
62778;PMS7003;48821;48.796;2.396;2023-06-05T04:41:21;9.00;7.33;5.67
62778;PMS7003;48821;48.796;2.396;2023-06-05T04:42:32;10.50;7.00;5.50
62778;PMS7003;48821;48.796;2.396;2023-06-05T04:43:43;11.00;8.00;7.00
62778;PMS7003;48821;48.796;2.396;2023-06-05T04:44:58;8.50;8.50;6.50
62778;PMS7003;48821;48.796;2.396;2023-06-05T04:46:08;10.67;10.33;7.00
62778;PMS7003;48821;48.796;2.396;2023-06-05T04:47:19;8.00;8.00;7.00
62778;PMS7003;48821;48.796;2.396;2023-06-05T04:48:30;10.00;8.50;7.00
62778;PMS7003;48821;48.796;2.396;2023-06-05T04:49:41;9.33;8.33;6.33
62778;PMS7003;48821;48.796;2.396;2023-06-05T04:50:52;10.00;8.50;7.00
62778;PMS7003;48821;48.796;2.396;2023-06-05T04:52:03;10.50;9.00;6.50
62778;PMS7003;48821;48.796;2.396;2023-06-05T04:53:14;10.00;8.00;7.00
62778;PMS7003;48821;48.796;2.396;2023-06-05T04:54:25;9.67;8.33;7.00
62778;PMS7003;48821;48.796;2.396;2023-06-05T04:55:36;12.00;11.25;9.25
62778;PMS7003;48821;48.796;2.396;2023-06-05T04:56:47;13.00;10.00;8.00
62778;PMS7003;48821;48.796;2.396;2023-06-05T04:57:59;12.00;9.67;6.00
62778;PMS7003;48821;48.796;2.396;2023-06-05T04:59:10;12.50;9.00;7.00
62778;PMS7003;48821;48.796;2.396;2023-06-05T05:00:21;9.50;9.00;7.00
62778;PMS7003;48821;48.796;2.396;2023-06-05T05:01:33;13.00;12.50;8.17
62778;PMS7003;48821;48.796;2.396;2023-06-05T05:02:44;10.50;8.50;6.50
62778;PMS7003;48821;48.796;2.396;2023-06-05T05:03:55;13.00;10.25;9.25
62778;PMS7003;48821;48.796;2.396;2023-06-05T05:05:06;11.50;11.00;9.00
62778;PMS7003;48821;48.796;2.396;2023-06-05T05:06:17;11.00;10.00;8.00
62778;PMS7003;48821;48.796;2.396;2023-06-05T05:07:28;13.00;11.00;8.00
62778;PMS7003;48821;48.796;2.396;2023-06-05T05:08:39;11.00;10.67;8.67
62778;PMS7003;48821;48.796;2.396;2023-06-05T05:09:51;13.40;9.20;8.00
62778;PMS7003;48821;48.796;2.396;2023-06-05T05:11:04;12.80;11.40;8.80
62778;PMS7003;48821;48.796;2.396;2023-06-05T05:12:15;12.50;11.00;8.00
62778;PMS7003;48821;48.796;2.396;2023-06-05T05:13:25;16.00;11.50;8.50
62778;PMS7003;48821;48.796;2.396;2023-06-05T05:14:38;12.17;10.33;8.33
62778;PMS7003;48821;48.796;2.396;2023-06-05T05:15:50;10.00;10.00;7.00
62778;PMS7003;48821;48.796;2.396;2023-06-05T05:17:03;9.00;9.00;7.00
62778;PMS7003;48821;48.796;2.396;2023-06-05T05:18:14;11.00;10.00;8.00
62778;PMS7003;48821;48.796;2.396;2023-06-05T05:19:25;11.00;11.00;6.67
62778;PMS7003;48821;48.796;2.396;2023-06-05T05:20:35;12.50;10.00;9.00
62778;PMS7003;48821;48.796;2.396;2023-06-05T05:21:46;10.25;9.25;6.00
62778;PMS7003;48821;48.796;2.396;2023-06-05T05:22:57;9.00;9.00;6.00
62778;PMS7003;48821;48.796;2.396;2023-06-05T05:24:11;13.83;11.17;8.67
62778;PMS7003;48821;48.796;2.396;2023-06-05T05:25:21;10.00;9.50;7.50
62778;PMS7003;48821;48.796;2.396;2023-06-05T05:26:32;14.00;10.75;9.25
62778;PMS7003;48821;48.796;2.396;2023-06-05T05:27:43;10.00;10.00;8.00
62778;PMS7003;48821;48.796;2.396;2023-06-05T05:28:55;11.17;10.50;8.33
62778;PMS7003;48821;48.796;2.396;2023-06-05T05:30:06;12.00;10.50;8.00
62778;PMS7003;48821;48.796;2.396;2023-06-05T05:31:17;11.00;10.00;8.00
62778;PMS7003;48821;48.796;2.396;2023-06-05T05:32:28;12.00;11.50;9.00
62778;PMS7003;48821;48.796;2.396;2023-06-05T05:33:39;10.00;9.00;8.00
62778;PMS7003;48821;48.796;2.396;2023-06-05T05:34:50;13.00;11.00;8.00
62778;PMS7003;48821;48.796;2.396;2023-06-05T05:36:01;11.00;7.50;7.00
62778;PMS7003;48821;48.796;2.396;2023-06-05T05:37:12;9.25;9.25;7.00
62778;PMS7003;48821;48.796;2.396;2023-06-05T05:38:22;13.00;10.50;8.00
62778;PMS7003;48821;48.796;2.396;2023-06-05T05:39:33;13.00;11.00;7.00
62778;PMS7003;48821;48.796;2.396;2023-06-05T05:40:45;10.00;10.00;8.33
62778;PMS7003;48821;48.796;2.396;2023-06-05T05:41:56;12.75;11.75;9.50
62778;PMS7003;48821;48.796;2.396;2023-06-05T05:43:06;11.50;11.00;8.00
62778;PMS7003;48821;48.796;2.396;2023-06-05T05:44:18;11.17;11.17;8.33
62778;PMS7003;48821;48.796;2.396;2023-06-05T05:45:29;9.50;9.50;7.50
62778;PMS7003;48821;48.796;2.396;2023-06-05T05:46:40;16.00;12.00;8.50
62778;PMS7003;48821;48.796;2.396;2023-06-05T05:47:53;13.57;11.43;9.00
62778;PMS7003;48821;48.796;2.396;2023-06-05T05:49:06;13.50;11.00;8.67
62778;PMS7003;48821;48.796;2.396;2023-06-05T05:50:19;13.00;11.17;8.67
62778;PMS7003;48821;48.796;2.396;2023-06-05T05:51:30;12.00;12.00;10.00
62778;PMS7003;48821;48.796;2.396;2023-06-05T05:52:41;12.50;12.50;8.50
62778;PMS7003;48821;48.796;2.396;2023-06-05T05:53:56;12.57;12.00;8.86
62778;PMS7003;48821;48.796;2.396;2023-06-05T05:55:07;11.00;10.00;8.50
62778;PMS7003;48821;48.796;2.396;2023-06-05T05:56:18;10.00;8.00;6.50
62778;PMS7003;48821;48.796;2.396;2023-06-05T05:57:30;12.50;11.33;8.50
62778;PMS7003;48821;48.796;2.396;2023-06-05T05:58:41;10.00;9.50;8.00
62778;PMS7003;48821;48.796;2.396;2023-06-05T05:59:52;12.00;11.00;8.00
62778;PMS7003;48821;48.796;2.396;2023-06-05T06:01:04;14.00;12.50;9.50
62778;PMS7003;48821;48.796;2.396;2023-06-05T06:02:16;13.17;11.83;8.50
62778;PMS7003;48821;48.796;2.396;2023-06-05T06:03:27;12.50;11.00;7.50
62778;PMS7003;48821;48.796;2.396;2023-06-05T06:04:41;14.50;12.50;9.83
62778;PMS7003;48821;48.796;2.396;2023-06-05T06:05:54;9.50;8.50;7.00
62778;PMS7003;48821;48.796;2.396;2023-06-05T06:07:05;12.00;11.50;8.50
62778;PMS7003;48821;48.796;2.396;2023-06-05T06:08:17;13.33;12.00;10.00
62778;PMS7003;48821;48.796;2.396;2023-06-05T06:09:30;13.71;11.29;8.14
62778;PMS7003;48821;48.796;2.396;2023-06-05T06:10:41;12.00;12.00;8.50
62778;PMS7003;48821;48.796;2.396;2023-06-05T06:11:52;12.00;8.00;5.50
62778;PMS7003;48821;48.796;2.396;2023-06-05T06:13:05;14.00;11.50;9.00
62778;PMS7003;48821;48.796;2.396;2023-06-05T06:14:16;12.00;10.50;8.50
62778;PMS7003;48821;48.796;2.396;2023-06-05T06:15:27;14.75;12.25;10.25
62778;PMS7003;48821;48.796;2.396;2023-06-05T06:16:38;14.00;12.67;9.00
62778;PMS7003;48821;48.796;2.396;2023-06-05T06:17:51;10.33;9.67;8.00
62778;PMS7003;48821;48.796;2.396;2023-06-05T06:19:01;12.00;11.50;10.50
62778;PMS7003;48821;48.796;2.396;2023-06-05T06:20:14;16.00;13.71;11.29
62778;PMS7003;48821;48.796;2.396;2023-06-05T06:21:26;17.00;15.33;10.33
62778;PMS7003;48821;48.796;2.396;2023-06-05T06:22:40;12.43;11.14;9.57
62778;PMS7003;48821;48.796;2.396;2023-06-05T06:23:51;13.33;12.67;10.00
62778;PMS7003;48821;48.796;2.396;2023-06-05T06:25:01;11.50;10.00;8.00
62778;PMS7003;48821;48.796;2.396;2023-06-05T06:26:13;12.00;11.00;9.00
62778;PMS7003;48821;48.796;2.396;2023-06-05T06:27:25;12.50;11.00;9.00
62778;PMS7003;48821;48.796;2.396;2023-06-05T06:28:38;14.57;11.71;10.29
62778;PMS7003;48821;48.796;2.396;2023-06-05T06:29:49;6.50;6.50;5.00
62778;PMS7003;48821;48.796;2.396;2023-06-05T06:31:03;13.50;13.50;10.33
62778;PMS7003;48821;48.796;2.396;2023-06-05T06:32:16;12.67;10.50;9.00
62778;PMS7003;48821;48.796;2.396;2023-06-05T06:33:27;15.50;12.00;10.00
62778;PMS7003;48821;48.796;2.396;2023-06-05T06:34:39;13.50;12.50;10.00
62778;PMS7003;48821;48.796;2.396;2023-06-05T06:35:50;11.25;11.00;8.75
62778;PMS7003;48821;48.796;2.396;2023-06-05T06:37:01;15.00;13.33;10.00
62778;PMS7003;48821;48.796;2.396;2023-06-05T06:38:12;15.00;12.50;9.50
62778;PMS7003;48821;48.796;2.396;2023-06-05T06:39:23;12.00;12.00;9.00
62778;PMS7003;48821;48.796;2.396;2023-06-05T06:40:36;13.00;11.00;8.00
62778;PMS7003;48821;48.796;2.396;2023-06-05T06:41:48;13.67;12.17;9.00
62778;PMS7003;48821;48.796;2.396;2023-06-05T06:42:59;11.00;11.00;9.00
62778;PMS7003;48821;48.796;2.396;2023-06-05T06:44:13;14.00;11.57;8.14
62778;PMS7003;48821;48.796;2.396;2023-06-05T06:45:23;13.50;10.50;8.00
62778;PMS7003;48821;48.796;2.396;2023-06-05T06:46:36;15.43;12.71;9.43
62778;PMS7003;48821;48.796;2.396;2023-06-05T06:47:47;13.00;11.50;8.00
62778;PMS7003;48821;48.796;2.396;2023-06-05T06:48:58;17.33;11.67;8.00
62778;PMS7003;48821;48.796;2.396;2023-06-05T06:50:09;9.50;9.50;7.50
62778;PMS7003;48821;48.796;2.396;2023-06-05T06:51:22;11.20;10.80;8.00
62778;PMS7003;48821;48.796;2.396;2023-06-05T06:52:35;13.00;11.83;8.17
62778;PMS7003;48821;48.796;2.396;2023-06-05T06:53:45;11.00;10.00;8.00
62778;PMS7003;48821;48.796;2.396;2023-06-05T06:54:56;12.75;12.25;9.25
62778;PMS7003;48821;48.796;2.396;2023-06-05T06:56:09;12.17;11.50;8.83
62778;PMS7003;48821;48.796;2.396;2023-06-05T06:57:19;18.00;12.00;9.00
62778;PMS7003;48821;48.796;2.396;2023-06-05T06:58:31;12.00;10.50;7.50
62778;PMS7003;48821;48.796;2.396;2023-06-05T06:59:43;16.17;13.33;9.50